sensor_id;sensor_type;location;lat;lon;timestamp;P1;durP1;ratioP1;P2;durP2;ratioP2
68050;SDS011;54839;51.364;7.246;2022-12-07T00:01:27;40.13;;;33.20;;
68050;SDS011;54839;51.364;7.246;2022-12-07T00:03:56;38.33;;;30.03;;
68050;SDS011;54839;51.364;7.246;2022-12-07T00:06:28;45.13;;;32.07;;
68050;SDS011;54839;51.364;7.246;2022-12-07T00:08:54;39.47;;;30.60;;
68050;SDS011;54839;51.364;7.246;2022-12-07T00:11:20;43.10;;;32.63;;
68050;SDS011;54839;51.364;7.246;2022-12-07T00:13:50;37.30;;;29.63;;
68050;SDS011;54839;51.364;7.246;2022-12-07T00:16:18;39.80;;;31.00;;
68050;SDS011;54839;51.364;7.246;2022-12-07T00:18:44;40.97;;;31.80;;
68050;SDS011;54839;51.364;7.246;2022-12-07T00:23:40;42.37;;;31.87;;
68050;SDS011;54839;51.364;7.246;2022-12-07T00:26:07;38.63;;;29.20;;
68050;SDS011;54839;51.364;7.246;2022-12-07T00:28:35;36.67;;;25.70;;
68050;SDS011;54839;51.364;7.246;2022-12-07T00:31:05;37.80;;;30.17;;
68050;SDS011;54839;51.364;7.246;2022-12-07T00:33:34;40.43;;;29.93;;
68050;SDS011;54839;51.364;7.246;2022-12-07T00:36:00;30.93;;;23.60;;
68050;SDS011;54839;51.364;7.246;2022-12-07T00:38:28;41.10;;;32.17;;
68050;SDS011;54839;51.364;7.246;2022-12-07T00:40:58;38.53;;;30.53;;
68050;SDS011;54839;51.364;7.246;2022-12-07T00:43:26;36.77;;;29.77;;
68050;SDS011;54839;51.364;7.246;2022-12-07T00:45:52;39.70;;;27.50;;
68050;SDS011;54839;51.364;7.246;2022-12-07T00:48:18;41.93;;;30.23;;
68050;SDS011;54839;51.364;7.246;2022-12-07T00:50:44;40.63;;;29.63;;
68050;SDS011;54839;51.364;7.246;2022-12-07T00:53:09;39.47;;;31.90;;
68050;SDS011;54839;51.364;7.246;2022-12-07T00:55:35;40.77;;;31.73;;
68050;SDS011;54839;51.364;7.246;2022-12-07T00:58:02;39.40;;;31.37;;
68050;SDS011;54839;51.364;7.246;2022-12-07T01:00:28;41.83;;;32.00;;
68050;SDS011;54839;51.364;7.246;2022-12-07T01:02:54;43.73;;;33.83;;
68050;SDS011;54839;51.364;7.246;2022-12-07T01:05:19;43.17;;;32.77;;
68050;SDS011;54839;51.364;7.246;2022-12-07T01:07:45;40.93;;;32.67;;
68050;SDS011;54839;51.364;7.246;2022-12-07T01:10:11;45.00;;;32.73;;
68050;SDS011;54839;51.364;7.246;2022-12-07T01:12:37;41.33;;;31.33;;
68050;SDS011;54839;51.364;7.246;2022-12-07T01:15:03;38.97;;;32.70;;
68050;SDS011;54839;51.364;7.246;2022-12-07T01:17:29;41.33;;;31.17;;
68050;SDS011;54839;51.364;7.246;2022-12-07T01:19:55;40.50;;;31.57;;
68050;SDS011;54839;51.364;7.246;2022-12-07T01:22:20;38.03;;;30.80;;
68050;SDS011;54839;51.364;7.246;2022-12-07T01:24:46;40.10;;;31.33;;
68050;SDS011;54839;51.364;7.246;2022-12-07T01:27:12;46.10;;;32.20;;
68050;SDS011;54839;51.364;7.246;2022-12-07T01:29:38;44.13;;;32.50;;
68050;SDS011;54839;51.364;7.246;2022-12-07T01:32:04;39.10;;;32.23;;
68050;SDS011;54839;51.364;7.246;2022-12-07T01:34:29;43.87;;;34.57;;
68050;SDS011;54839;51.364;7.246;2022-12-07T01:36:55;47.10;;;34.90;;
68050;SDS011;54839;51.364;7.246;2022-12-07T01:39:20;50.33;;;36.10;;
68050;SDS011;54839;51.364;7.246;2022-12-07T01:41:46;39.80;;;31.07;;
68050;SDS011;54839;51.364;7.246;2022-12-07T01:46:53;47.97;;;37.07;;
68050;SDS011;54839;51.364;7.246;2022-12-07T01:49:37;52.27;;;34.40;;
68050;SDS011;54839;51.364;7.246;2022-12-07T01:52:28;44.67;;;35.47;;
68050;SDS011;54839;51.364;7.246;2022-12-07T01:54:59;46.57;;;36.17;;
68050;SDS011;54839;51.364;7.246;2022-12-07T01:57:29;49.73;;;35.33;;
68050;SDS011;54839;51.364;7.246;2022-12-07T01:59:56;49.33;;;34.70;;
68050;SDS011;54839;51.364;7.246;2022-12-07T02:02:33;51.23;;;37.13;;
68050;SDS011;54839;51.364;7.246;2022-12-07T02:05:00;51.00;;;39.10;;
68050;SDS011;54839;51.364;7.246;2022-12-07T02:07:28;48.30;;;35.80;;
68050;SDS011;54839;51.364;7.246;2022-12-07T02:09:54;49.43;;;37.33;;
68050;SDS011;54839;51.364;7.246;2022-12-07T02:12:20;56.60;;;39.00;;
68050;SDS011;54839;51.364;7.246;2022-12-07T02:14:46;47.17;;;34.57;;
68050;SDS011;54839;51.364;7.246;2022-12-07T02:31:17;48.87;;;33.87;;
68050;SDS011;54839;51.364;7.246;2022-12-07T02:33:46;49.97;;;32.10;;
68050;SDS011;54839;51.364;7.246;2022-12-07T02:36:20;49.33;;;35.53;;
68050;SDS011;54839;51.364;7.246;2022-12-07T02:41:49;55.07;;;35.70;;
68050;SDS011;54839;51.364;7.246;2022-12-07T02:44:21;55.00;;;35.80;;
68050;SDS011;54839;51.364;7.246;2022-12-07T02:46:52;50.90;;;35.00;;
68050;SDS011;54839;51.364;7.246;2022-12-07T02:49:21;48.63;;;35.80;;
68050;SDS011;54839;51.364;7.246;2022-12-07T02:51:48;50.53;;;36.23;;
68050;SDS011;54839;51.364;7.246;2022-12-07T02:54:15;53.30;;;35.93;;
68050;SDS011;54839;51.364;7.246;2022-12-07T02:56:47;53.13;;;37.53;;
68050;SDS011;54839;51.364;7.246;2022-12-07T02:59:25;52.67;;;34.63;;
68050;SDS011;54839;51.364;7.246;2022-12-07T03:02:25;50.37;;;35.27;;
68050;SDS011;54839;51.364;7.246;2022-12-07T03:05:13;58.13;;;34.60;;
68050;SDS011;54839;51.364;7.246;2022-12-07T03:08:11;51.20;;;33.23;;
68050;SDS011;54839;51.364;7.246;2022-12-07T03:10:47;47.37;;;34.77;;
68050;SDS011;54839;51.364;7.246;2022-12-07T03:13:29;46.13;;;31.77;;
68050;SDS011;54839;51.364;7.246;2022-12-07T03:16:14;50.23;;;33.33;;
68050;SDS011;54839;51.364;7.246;2022-12-07T03:18:44;51.07;;;36.23;;
68050;SDS011;54839;51.364;7.246;2022-12-07T03:21:21;51.07;;;32.87;;
68050;SDS011;54839;51.364;7.246;2022-12-07T03:23:53;49.60;;;32.40;;
68050;SDS011;54839;51.364;7.246;2022-12-07T03:26:21;48.37;;;31.50;;
68050;SDS011;54839;51.364;7.246;2022-12-07T03:28:55;43.90;;;31.60;;
68050;SDS011;54839;51.364;7.246;2022-12-07T03:31:26;41.10;;;23.17;;
68050;SDS011;54839;51.364;7.246;2022-12-07T03:34:01;42.77;;;29.07;;
68050;SDS011;54839;51.364;7.246;2022-12-07T03:36:55;45.70;;;30.73;;
68050;SDS011;54839;51.364;7.246;2022-12-07T03:39:27;50.47;;;33.17;;
68050;SDS011;54839;51.364;7.246;2022-12-07T03:41:59;44.47;;;29.83;;
68050;SDS011;54839;51.364;7.246;2022-12-07T03:44:26;48.00;;;32.87;;
68050;SDS011;54839;51.364;7.246;2022-12-07T03:49:37;47.37;;;32.50;;
68050;SDS011;54839;51.364;7.246;2022-12-07T03:57:34;43.73;;;32.50;;
68050;SDS011;54839;51.364;7.246;2022-12-07T04:00:01;37.17;;;24.37;;
68050;SDS011;54839;51.364;7.246;2022-12-07T04:02:29;45.70;;;32.10;;
68050;SDS011;54839;51.364;7.246;2022-12-07T04:04:55;44.77;;;34.47;;
68050;SDS011;54839;51.364;7.246;2022-12-07T04:07:21;44.97;;;33.77;;
68050;SDS011;54839;51.364;7.246;2022-12-07T04:09:47;45.57;;;30.83;;
68050;SDS011;54839;51.364;7.246;2022-12-07T04:12:12;48.73;;;33.07;;
68050;SDS011;54839;51.364;7.246;2022-12-07T04:14:38;41.47;;;27.10;;
68050;SDS011;54839;51.364;7.246;2022-12-07T04:17:03;38.20;;;28.20;;
68050;SDS011;54839;51.364;7.246;2022-12-07T04:19:30;50.20;;;30.90;;
68050;SDS011;54839;51.364;7.246;2022-12-07T04:21:57;44.00;;;29.33;;
68050;SDS011;54839;51.364;7.246;2022-12-07T04:24:25;42.73;;;27.07;;
68050;SDS011;54839;51.364;7.246;2022-12-07T04:26:51;47.13;;;32.40;;
68050;SDS011;54839;51.364;7.246;2022-12-07T04:29:17;44.57;;;25.47;;
68050;SDS011;54839;51.364;7.246;2022-12-07T04:31:43;40.57;;;27.47;;
68050;SDS011;54839;51.364;7.246;2022-12-07T04:34:09;45.53;;;29.40;;
68050;SDS011;54839;51.364;7.246;2022-12-07T04:36:35;38.60;;;24.17;;
68050;SDS011;54839;51.364;7.246;2022-12-07T04:39:01;39.50;;;26.37;;
68050;SDS011;54839;51.364;7.246;2022-12-07T04:41:27;48.63;;;28.90;;
68050;SDS011;54839;51.364;7.246;2022-12-07T04:43:57;47.00;;;26.77;;
68050;SDS011;54839;51.364;7.246;2022-12-07T04:46:27;39.80;;;27.27;;
68050;SDS011;54839;51.364;7.246;2022-12-07T04:48:54;45.57;;;28.00;;
68050;SDS011;54839;51.364;7.246;2022-12-07T04:51:21;34.87;;;19.97;;
68050;SDS011;54839;51.364;7.246;2022-12-07T04:53:51;41.90;;;27.60;;
68050;SDS011;54839;51.364;7.246;2022-12-07T04:56:18;37.83;;;25.67;;
68050;SDS011;54839;51.364;7.246;2022-12-07T04:58:44;37.90;;;23.00;;
68050;SDS011;54839;51.364;7.246;2022-12-07T05:01:11;35.63;;;25.27;;
68050;SDS011;54839;51.364;7.246;2022-12-07T05:03:37;43.63;;;25.80;;
68050;SDS011;54839;51.364;7.246;2022-12-07T05:06:03;26.17;;;15.57;;
68050;SDS011;54839;51.364;7.246;2022-12-07T05:08:29;40.40;;;26.90;;
68050;SDS011;54839;51.364;7.246;2022-12-07T05:10:55;38.47;;;25.30;;
68050;SDS011;54839;51.364;7.246;2022-12-07T05:13:20;43.90;;;25.17;;
68050;SDS011;54839;51.364;7.246;2022-12-07T05:15:47;43.17;;;25.90;;
68050;SDS011;54839;51.364;7.246;2022-12-07T05:18:12;41.73;;;25.10;;
68050;SDS011;54839;51.364;7.246;2022-12-07T05:20:38;38.97;;;26.70;;
68050;SDS011;54839;51.364;7.246;2022-12-07T05:23:04;37.87;;;28.40;;
68050;SDS011;54839;51.364;7.246;2022-12-07T05:25:30;36.20;;;26.87;;
68050;SDS011;54839;51.364;7.246;2022-12-07T05:27:56;32.70;;;23.37;;
68050;SDS011;54839;51.364;7.246;2022-12-07T05:30:22;37.90;;;25.50;;
68050;SDS011;54839;51.364;7.246;2022-12-07T05:32:48;36.90;;;26.00;;
68050;SDS011;54839;51.364;7.246;2022-12-07T05:35:14;34.03;;;26.30;;
68050;SDS011;54839;51.364;7.246;2022-12-07T05:37:40;34.63;;;26.63;;
68050;SDS011;54839;51.364;7.246;2022-12-07T05:40:05;40.43;;;26.07;;
68050;SDS011;54839;51.364;7.246;2022-12-07T05:42:31;37.30;;;25.80;;
68050;SDS011;54839;51.364;7.246;2022-12-07T05:44:57;44.67;;;26.00;;
68050;SDS011;54839;51.364;7.246;2022-12-07T05:47:23;38.57;;;26.77;;
68050;SDS011;54839;51.364;7.246;2022-12-07T05:49:48;36.03;;;25.10;;
68050;SDS011;54839;51.364;7.246;2022-12-07T05:52:14;32.90;;;22.50;;
68050;SDS011;54839;51.364;7.246;2022-12-07T05:54:40;38.37;;;25.90;;
68050;SDS011;54839;51.364;7.246;2022-12-07T05:57:05;36.80;;;27.07;;
68050;SDS011;54839;51.364;7.246;2022-12-07T05:59:31;44.93;;;29.73;;
68050;SDS011;54839;51.364;7.246;2022-12-07T06:02:00;44.67;;;27.30;;
68050;SDS011;54839;51.364;7.246;2022-12-07T06:04:32;42.20;;;26.80;;
68050;SDS011;54839;51.364;7.246;2022-12-07T06:07:00;35.93;;;25.97;;
68050;SDS011;54839;51.364;7.246;2022-12-07T06:09:26;38.33;;;25.67;;
68050;SDS011;54839;51.364;7.246;2022-12-07T06:11:53;39.03;;;25.87;;
68050;SDS011;54839;51.364;7.246;2022-12-07T06:14:38;43.00;;;25.47;;
68050;SDS011;54839;51.364;7.246;2022-12-07T06:17:03;48.40;;;26.93;;
68050;SDS011;54839;51.364;7.246;2022-12-07T06:19:29;43.37;;;27.90;;
68050;SDS011;54839;51.364;7.246;2022-12-07T06:21:55;42.60;;;28.60;;
68050;SDS011;54839;51.364;7.246;2022-12-07T06:24:21;38.53;;;28.00;;
68050;SDS011;54839;51.364;7.246;2022-12-07T06:26:47;44.93;;;26.97;;
68050;SDS011;54839;51.364;7.246;2022-12-07T06:29:13;37.10;;;27.97;;
68050;SDS011;54839;51.364;7.246;2022-12-07T06:31:38;36.30;;;23.03;;
68050;SDS011;54839;51.364;7.246;2022-12-07T06:34:05;37.73;;;25.10;;
68050;SDS011;54839;51.364;7.246;2022-12-07T06:36:34;32.83;;;21.77;;
68050;SDS011;54839;51.364;7.246;2022-12-07T06:39:00;29.83;;;22.73;;
68050;SDS011;54839;51.364;7.246;2022-12-07T06:41:26;37.93;;;26.63;;
68050;SDS011;54839;51.364;7.246;2022-12-07T06:43:51;35.53;;;25.00;;
68050;SDS011;54839;51.364;7.246;2022-12-07T06:46:17;35.57;;;23.27;;
68050;SDS011;54839;51.364;7.246;2022-12-07T06:48:43;29.83;;;22.77;;
68050;SDS011;54839;51.364;7.246;2022-12-07T06:51:09;32.00;;;22.40;;
68050;SDS011;54839;51.364;7.246;2022-12-07T06:53:35;28.97;;;20.97;;
68050;SDS011;54839;51.364;7.246;2022-12-07T06:56:01;25.20;;;19.37;;
68050;SDS011;54839;51.364;7.246;2022-12-07T06:58:28;24.87;;;18.37;;
68050;SDS011;54839;51.364;7.246;2022-12-07T07:00:53;28.73;;;20.10;;
68050;SDS011;54839;51.364;7.246;2022-12-07T07:03:19;29.23;;;18.40;;
68050;SDS011;54839;51.364;7.246;2022-12-07T07:05:44;23.63;;;17.47;;
68050;SDS011;54839;51.364;7.246;2022-12-07T07:08:10;28.10;;;17.80;;
68050;SDS011;54839;51.364;7.246;2022-12-07T07:10:37;24.27;;;16.20;;
68050;SDS011;54839;51.364;7.246;2022-12-07T07:13:02;22.83;;;17.10;;
68050;SDS011;54839;51.364;7.246;2022-12-07T07:15:28;27.27;;;18.30;;
68050;SDS011;54839;51.364;7.246;2022-12-07T07:17:54;19.27;;;15.90;;
68050;SDS011;54839;51.364;7.246;2022-12-07T07:20:20;32.00;;;20.60;;
68050;SDS011;54839;51.364;7.246;2022-12-07T07:22:46;31.97;;;21.10;;
68050;SDS011;54839;51.364;7.246;2022-12-07T07:25:12;33.17;;;21.60;;
68050;SDS011;54839;51.364;7.246;2022-12-07T07:27:37;31.20;;;23.60;;
68050;SDS011;54839;51.364;7.246;2022-12-07T07:30:04;29.93;;;21.57;;
68050;SDS011;54839;51.364;7.246;2022-12-07T07:32:30;32.73;;;20.83;;
68050;SDS011;54839;51.364;7.246;2022-12-07T07:34:56;27.77;;;20.20;;
68050;SDS011;54839;51.364;7.246;2022-12-07T07:37:21;31.10;;;20.83;;
68050;SDS011;54839;51.364;7.246;2022-12-07T07:39:48;29.97;;;21.27;;
68050;SDS011;54839;51.364;7.246;2022-12-07T07:42:14;26.67;;;19.37;;
68050;SDS011;54839;51.364;7.246;2022-12-07T07:44:40;20.13;;;15.33;;
68050;SDS011;54839;51.364;7.246;2022-12-07T07:47:05;24.00;;;16.57;;
68050;SDS011;54839;51.364;7.246;2022-12-07T07:49:31;23.67;;;15.20;;
68050;SDS011;54839;51.364;7.246;2022-12-07T07:51:56;19.20;;;13.60;;
68050;SDS011;54839;51.364;7.246;2022-12-07T07:54:22;20.97;;;15.27;;
68050;SDS011;54839;51.364;7.246;2022-12-07T07:56:47;19.33;;;14.53;;
68050;SDS011;54839;51.364;7.246;2022-12-07T07:59:13;20.33;;;13.53;;
68050;SDS011;54839;51.364;7.246;2022-12-07T08:01:39;23.03;;;16.50;;
68050;SDS011;54839;51.364;7.246;2022-12-07T08:04:05;17.40;;;13.53;;
68050;SDS011;54839;51.364;7.246;2022-12-07T08:06:30;19.47;;;14.30;;
68050;SDS011;54839;51.364;7.246;2022-12-07T08:08:56;27.77;;;16.33;;
68050;SDS011;54839;51.364;7.246;2022-12-07T08:11:23;26.17;;;16.20;;
68050;SDS011;54839;51.364;7.246;2022-12-07T08:13:49;21.23;;;15.83;;
68050;SDS011;54839;51.364;7.246;2022-12-07T08:16:14;20.07;;;15.73;;
68050;SDS011;54839;51.364;7.246;2022-12-07T08:18:41;19.67;;;15.40;;
68050;SDS011;54839;51.364;7.246;2022-12-07T08:21:08;18.53;;;14.80;;
68050;SDS011;54839;51.364;7.246;2022-12-07T08:23:36;25.70;;;17.77;;
68050;SDS011;54839;51.364;7.246;2022-12-07T08:26:03;14.43;;;12.43;;
68050;SDS011;54839;51.364;7.246;2022-12-07T08:28:30;20.00;;;13.20;;
68050;SDS011;54839;51.364;7.246;2022-12-07T08:31:03;24.90;;;14.30;;
68050;SDS011;54839;51.364;7.246;2022-12-07T08:33:39;20.33;;;14.13;;
68050;SDS011;54839;51.364;7.246;2022-12-07T08:36:06;21.90;;;12.90;;
68050;SDS011;54839;51.364;7.246;2022-12-07T08:38:34;15.40;;;11.97;;
68050;SDS011;54839;51.364;7.246;2022-12-07T08:41:03;15.40;;;10.80;;
68050;SDS011;54839;51.364;7.246;2022-12-07T08:43:29;17.93;;;11.60;;
68050;SDS011;54839;51.364;7.246;2022-12-07T08:46:03;17.70;;;12.57;;
68050;SDS011;54839;51.364;7.246;2022-12-07T08:51:37;16.00;;;11.77;;
68050;SDS011;54839;51.364;7.246;2022-12-07T08:54:08;21.80;;;11.30;;
68050;SDS011;54839;51.364;7.246;2022-12-07T08:56:35;14.70;;;11.60;;
68050;SDS011;54839;51.364;7.246;2022-12-07T08:59:02;18.30;;;9.77;;
68050;SDS011;54839;51.364;7.246;2022-12-07T09:01:28;15.10;;;9.87;;
68050;SDS011;54839;51.364;7.246;2022-12-07T09:03:54;17.53;;;9.90;;
68050;SDS011;54839;51.364;7.246;2022-12-07T09:06:20;11.60;;;8.30;;
68050;SDS011;54839;51.364;7.246;2022-12-07T09:08:46;16.13;;;9.37;;
68050;SDS011;54839;51.364;7.246;2022-12-07T09:11:14;14.13;;;8.57;;
68050;SDS011;54839;51.364;7.246;2022-12-07T09:13:40;16.37;;;10.53;;
68050;SDS011;54839;51.364;7.246;2022-12-07T09:16:05;14.63;;;8.93;;
68050;SDS011;54839;51.364;7.246;2022-12-07T09:18:31;12.70;;;9.43;;
68050;SDS011;54839;51.364;7.246;2022-12-07T09:20:57;12.20;;;9.00;;
68050;SDS011;54839;51.364;7.246;2022-12-07T09:23:22;13.63;;;9.67;;
68050;SDS011;54839;51.364;7.246;2022-12-07T09:25:48;14.70;;;10.23;;
68050;SDS011;54839;51.364;7.246;2022-12-07T09:28:13;9.63;;;8.03;;
68050;SDS011;54839;51.364;7.246;2022-12-07T09:30:45;12.73;;;8.70;;
68050;SDS011;54839;51.364;7.246;2022-12-07T09:33:12;14.47;;;9.30;;
68050;SDS011;54839;51.364;7.246;2022-12-07T09:35:37;14.07;;;9.80;;
68050;SDS011;54839;51.364;7.246;2022-12-07T09:38:03;15.80;;;11.30;;
68050;SDS011;54839;51.364;7.246;2022-12-07T09:40:28;19.10;;;12.03;;
68050;SDS011;54839;51.364;7.246;2022-12-07T09:42:54;11.00;;;9.83;;
68050;SDS011;54839;51.364;7.246;2022-12-07T09:45:24;17.50;;;11.53;;
68050;SDS011;54839;51.364;7.246;2022-12-07T09:47:55;16.97;;;12.50;;
68050;SDS011;54839;51.364;7.246;2022-12-07T09:50:23;15.80;;;13.70;;
68050;SDS011;54839;51.364;7.246;2022-12-07T09:52:51;18.40;;;13.77;;
68050;SDS011;54839;51.364;7.246;2022-12-07T09:55:26;20.40;;;13.77;;
68050;SDS011;54839;51.364;7.246;2022-12-07T09:57:53;24.57;;;16.30;;
68050;SDS011;54839;51.364;7.246;2022-12-07T10:00:21;19.70;;;15.97;;
68050;SDS011;54839;51.364;7.246;2022-12-07T10:02:55;26.00;;;18.80;;
68050;SDS011;54839;51.364;7.246;2022-12-07T10:05:35;15.67;;;13.50;;
68050;SDS011;54839;51.364;7.246;2022-12-07T10:08:04;17.10;;;12.73;;
68050;SDS011;54839;51.364;7.246;2022-12-07T10:10:34;23.00;;;16.03;;
68050;SDS011;54839;51.364;7.246;2022-12-07T10:13:04;18.60;;;13.20;;
68050;SDS011;54839;51.364;7.246;2022-12-07T10:15:49;18.10;;;15.90;;
68050;SDS011;54839;51.364;7.246;2022-12-07T10:18:29;18.17;;;14.03;;
68050;SDS011;54839;51.364;7.246;2022-12-07T10:21:20;15.97;;;13.90;;
68050;SDS011;54839;51.364;7.246;2022-12-07T10:24:00;21.33;;;16.63;;
68050;SDS011;54839;51.364;7.246;2022-12-07T10:26:51;16.17;;;12.60;;
68050;SDS011;54839;51.364;7.246;2022-12-07T10:29:31;17.20;;;13.10;;
68050;SDS011;54839;51.364;7.246;2022-12-07T10:34:48;26.97;;;11.43;;
68050;SDS011;54839;51.364;7.246;2022-12-07T10:42:09;14.43;;;10.33;;
68050;SDS011;54839;51.364;7.246;2022-12-07T10:45:36;18.73;;;7.90;;
68050;SDS011;54839;51.364;7.246;2022-12-07T10:47:36;16.40;;;10.30;;
68050;SDS011;54839;51.364;7.246;2022-12-07T10:50:25;12.10;;;7.73;;
68050;SDS011;54839;51.364;7.246;2022-12-07T10:55:26;10.90;;;8.27;;
68050;SDS011;54839;51.364;7.246;2022-12-07T11:01:04;9.80;;;7.70;;
68050;SDS011;54839;51.364;7.246;2022-12-07T11:06:34;8.90;;;6.47;;
68050;SDS011;54839;51.364;7.246;2022-12-07T11:14:44;11.00;;;5.87;;
68050;SDS011;54839;51.364;7.246;2022-12-07T11:17:26;9.63;;;5.97;;
68050;SDS011;54839;51.364;7.246;2022-12-07T11:20:24;7.90;;;5.23;;
68050;SDS011;54839;51.364;7.246;2022-12-07T11:23:03;8.23;;;5.17;;
68050;SDS011;54839;51.364;7.246;2022-12-07T11:26:05;9.53;;;6.43;;
68050;SDS011;54839;51.364;7.246;2022-12-07T11:37:20;9.40;;;5.97;;
68050;SDS011;54839;51.364;7.246;2022-12-07T11:39:54;14.83;;;11.53;;
68050;SDS011;54839;51.364;7.246;2022-12-07T11:42:27;20.20;;;10.47;;
68050;SDS011;54839;51.364;7.246;2022-12-07T11:47:38;15.17;;;11.30;;
68050;SDS011;54839;51.364;7.246;2022-12-07T11:52:51;17.13;;;12.00;;
68050;SDS011;54839;51.364;7.246;2022-12-07T11:55:32;18.00;;;12.60;;
68050;SDS011;54839;51.364;7.246;2022-12-07T12:01:11;15.30;;;11.20;;
68050;SDS011;54839;51.364;7.246;2022-12-07T12:03:50;14.20;;;12.80;;
68050;SDS011;54839;51.364;7.246;2022-12-07T12:06:35;16.30;;;14.80;;
68050;SDS011;54839;51.364;7.246;2022-12-07T12:09:14;15.10;;;12.33;;
68050;SDS011;54839;51.364;7.246;2022-12-07T12:17:13;15.53;;;12.33;;
68050;SDS011;54839;51.364;7.246;2022-12-07T12:20:15;16.63;;;12.37;;
68050;SDS011;54839;51.364;7.246;2022-12-07T12:25:25;12.97;;;9.83;;
68050;SDS011;54839;51.364;7.246;2022-12-07T12:27:55;14.07;;;11.80;;
68050;SDS011;54839;51.364;7.246;2022-12-07T12:30:36;20.27;;;9.50;;
68050;SDS011;54839;51.364;7.246;2022-12-07T12:33:22;12.37;;;9.37;;
68050;SDS011;54839;51.364;7.246;2022-12-07T12:46:54;9.83;;;7.10;;
68050;SDS011;54839;51.364;7.246;2022-12-07T12:51:48;14.20;;;8.60;;
68050;SDS011;54839;51.364;7.246;2022-12-07T12:57:27;11.13;;;6.40;;
68050;SDS011;54839;51.364;7.246;2022-12-07T12:59:57;9.77;;;6.40;;
68050;SDS011;54839;51.364;7.246;2022-12-07T13:02:34;12.20;;;5.60;;
68050;SDS011;54839;51.364;7.246;2022-12-07T13:05:14;13.87;;;6.53;;
68050;SDS011;54839;51.364;7.246;2022-12-07T13:20:57;7.33;;;4.93;;
68050;SDS011;54839;51.364;7.246;2022-12-07T13:23:34;10.50;;;5.30;;
68050;SDS011;54839;51.364;7.246;2022-12-07T13:29:15;6.70;;;4.50;;
68050;SDS011;54839;51.364;7.246;2022-12-07T13:31:43;10.20;;;4.30;;
68050;SDS011;54839;51.364;7.246;2022-12-07T13:34:33;5.00;;;4.20;;
68050;SDS011;54839;51.364;7.246;2022-12-07T13:37:17;11.07;;;4.93;;
68050;SDS011;54839;51.364;7.246;2022-12-07T13:39:52;7.87;;;4.60;;
68050;SDS011;54839;51.364;7.246;2022-12-07T13:42:22;6.50;;;4.10;;
68050;SDS011;54839;51.364;7.246;2022-12-07T13:44:51;12.73;;;5.53;;
68050;SDS011;54839;51.364;7.246;2022-12-07T13:47:23;8.13;;;5.20;;
68050;SDS011;54839;51.364;7.246;2022-12-07T13:49:56;6.30;;;3.93;;
68050;SDS011;54839;51.364;7.246;2022-12-07T13:52:29;11.53;;;5.50;;
68050;SDS011;54839;51.364;7.246;2022-12-07T13:57:23;6.73;;;5.43;;
68050;SDS011;54839;51.364;7.246;2022-12-07T13:59:50;8.80;;;5.77;;
68050;SDS011;54839;51.364;7.246;2022-12-07T14:02:21;8.03;;;5.87;;
68050;SDS011;54839;51.364;7.246;2022-12-07T14:04:49;14.00;;;7.00;;
68050;SDS011;54839;51.364;7.246;2022-12-07T14:07:26;11.03;;;5.27;;
68050;SDS011;54839;51.364;7.246;2022-12-07T14:09:55;9.20;;;6.00;;
68050;SDS011;54839;51.364;7.246;2022-12-07T14:12:26;7.90;;;5.80;;
68050;SDS011;54839;51.364;7.246;2022-12-07T14:14:53;9.50;;;6.07;;
68050;SDS011;54839;51.364;7.246;2022-12-07T14:17:20;5.23;;;4.07;;
68050;SDS011;54839;51.364;7.246;2022-12-07T14:19:52;10.40;;;4.03;;
68050;SDS011;54839;51.364;7.246;2022-12-07T14:22:24;8.73;;;3.33;;
68050;SDS011;54839;51.364;7.246;2022-12-07T14:24:50;6.97;;;3.70;;
68050;SDS011;54839;51.364;7.246;2022-12-07T14:27:23;5.07;;;2.87;;
68050;SDS011;54839;51.364;7.246;2022-12-07T14:29:55;8.53;;;3.73;;
68050;SDS011;54839;51.364;7.246;2022-12-07T14:32:25;3.80;;;3.10;;
68050;SDS011;54839;51.364;7.246;2022-12-07T14:34:59;7.70;;;3.80;;
68050;SDS011;54839;51.364;7.246;2022-12-07T14:37:28;3.93;;;2.67;;
68050;SDS011;54839;51.364;7.246;2022-12-07T14:39:55;7.60;;;3.20;;
68050;SDS011;54839;51.364;7.246;2022-12-07T14:42:20;5.10;;;3.30;;
68050;SDS011;54839;51.364;7.246;2022-12-07T14:44:50;5.50;;;3.23;;
68050;SDS011;54839;51.364;7.246;2022-12-07T14:47:15;9.30;;;2.73;;
68050;SDS011;54839;51.364;7.246;2022-12-07T14:49:41;6.37;;;2.60;;
68050;SDS011;54839;51.364;7.246;2022-12-07T14:52:09;5.93;;;2.60;;
68050;SDS011;54839;51.364;7.246;2022-12-07T14:54:42;9.13;;;4.53;;
68050;SDS011;54839;51.364;7.246;2022-12-07T14:57:08;6.60;;;3.27;;
68050;SDS011;54839;51.364;7.246;2022-12-07T14:59:35;9.90;;;4.27;;
68050;SDS011;54839;51.364;7.246;2022-12-07T15:02:00;10.10;;;4.70;;
68050;SDS011;54839;51.364;7.246;2022-12-07T15:04:26;7.57;;;4.33;;
68050;SDS011;54839;51.364;7.246;2022-12-07T15:06:58;11.00;;;4.70;;
68050;SDS011;54839;51.364;7.246;2022-12-07T15:09:26;10.50;;;4.37;;
68050;SDS011;54839;51.364;7.246;2022-12-07T15:11:52;9.50;;;4.57;;
68050;SDS011;54839;51.364;7.246;2022-12-07T15:14:17;9.10;;;4.70;;
68050;SDS011;54839;51.364;7.246;2022-12-07T15:16:43;6.87;;;4.80;;
68050;SDS011;54839;51.364;7.246;2022-12-07T15:19:27;5.27;;;4.73;;
68050;SDS011;54839;51.364;7.246;2022-12-07T15:21:53;8.97;;;5.03;;
68050;SDS011;54839;51.364;7.246;2022-12-07T15:24:19;8.53;;;6.33;;
68050;SDS011;54839;51.364;7.246;2022-12-07T15:26:45;6.60;;;5.97;;
68050;SDS011;54839;51.364;7.246;2022-12-07T15:29:11;18.67;;;6.77;;
68050;SDS011;54839;51.364;7.246;2022-12-07T15:31:37;12.17;;;8.20;;
68050;SDS011;54839;51.364;7.246;2022-12-07T15:34:03;11.20;;;5.47;;
68050;SDS011;54839;51.364;7.246;2022-12-07T15:36:32;11.33;;;6.50;;
68050;SDS011;54839;51.364;7.246;2022-12-07T15:38:58;17.33;;;6.70;;
68050;SDS011;54839;51.364;7.246;2022-12-07T15:41:24;11.53;;;5.80;;
68050;SDS011;54839;51.364;7.246;2022-12-07T15:43:50;10.07;;;6.63;;
68050;SDS011;54839;51.364;7.246;2022-12-07T15:46:36;14.73;;;5.57;;
68050;SDS011;54839;51.364;7.246;2022-12-07T15:49:03;12.00;;;5.97;;
68050;SDS011;54839;51.364;7.246;2022-12-07T15:51:31;9.83;;;6.00;;
68050;SDS011;54839;51.364;7.246;2022-12-07T15:53:57;37.13;;;8.00;;
68050;SDS011;54839;51.364;7.246;2022-12-07T15:56:23;11.00;;;5.50;;
68050;SDS011;54839;51.364;7.246;2022-12-07T15:58:48;8.27;;;4.53;;
68050;SDS011;54839;51.364;7.246;2022-12-07T16:01:15;12.53;;;6.00;;
68050;SDS011;54839;51.364;7.246;2022-12-07T16:03:43;12.83;;;5.40;;
68050;SDS011;54839;51.364;7.246;2022-12-07T16:06:09;11.47;;;6.37;;
68050;SDS011;54839;51.364;7.246;2022-12-07T16:08:35;13.40;;;5.97;;
68050;SDS011;54839;51.364;7.246;2022-12-07T16:11:04;10.20;;;5.83;;
68050;SDS011;54839;51.364;7.246;2022-12-07T16:13:33;9.27;;;5.27;;
68050;SDS011;54839;51.364;7.246;2022-12-07T16:16:02;13.30;;;5.57;;
68050;SDS011;54839;51.364;7.246;2022-12-07T16:18:29;7.73;;;5.47;;
68050;SDS011;54839;51.364;7.246;2022-12-07T16:20:55;10.30;;;5.60;;
68050;SDS011;54839;51.364;7.246;2022-12-07T16:23:20;10.60;;;4.97;;
68050;SDS011;54839;51.364;7.246;2022-12-07T16:25:46;14.50;;;5.30;;
68050;SDS011;54839;51.364;7.246;2022-12-07T16:28:11;9.87;;;5.33;;
68050;SDS011;54839;51.364;7.246;2022-12-07T16:30:37;18.67;;;5.53;;
68050;SDS011;54839;51.364;7.246;2022-12-07T16:33:03;14.53;;;5.70;;
68050;SDS011;54839;51.364;7.246;2022-12-07T16:35:28;7.37;;;5.77;;
68050;SDS011;54839;51.364;7.246;2022-12-07T16:37:54;12.23;;;6.53;;